Terminal Aerodrome Forecast
Issued by NWS Jackson, MS

Home | Current Version | Previous Version | Text Only | Print | Product List | Glossary On
Versions: 1 2 3 4 5 6 7 8 9 10 11 12 13 14 15 16 17 18 19
000
FTUS44 KMEG 021100
TAFTUP
TAF
KTUP 021136Z 0212/0312 20004KT P6SM SCT015 BKN250
      TEMPO 0212/0215 BKN015
     FM021600 23007KT P6SM VCTS BKN040CB
     FM030000 VRB02KT P6SM SCT040 BKN150
     FM030600 VRB02KT 5SM BR SCT040
      TEMPO 0309/0312 2SM BR=

USA.gov is the U.S. government's official web portal to all federal, state and local government web resources and services.